Time;durP1;ratioP1;P1;durP2;ratioP2;P2;SDS_P1;SDS_P2;PMS_P1;PMS_P2;Temp;Humidity;BMP_temperature;BMP_pressure;BME280_temperature;BME280_humidity;BME280_pressure;Samples;Min_cycle;Max_cycle;Signal;HPM_P1;HPM_P2
2023/05/11 00:02:23;;;;;;;1.00;0.60;;;;;;;15.27;68.57;100207.59;5082066;28;20411;-72
2023/05/11 00:04:49;;;;;;;0.60;0.50;;;;;;;15.27;68.71;100204.88;5084321;28;20474;-72
2023/05/11 00:07:14;;;;;;;1.17;0.60;;;;;;;15.25;68.71;100205.13;5076265;28;20406;-72
2023/05/11 00:09:40;;;;;;;0.50;0.30;;;;;;;15.19;68.96;100197.25;5062285;28;20493;-72
2023/05/11 00:12:06;;;;;;;1.10;0.30;;;;;;;15.14;69.25;100200.84;5080728;28;20942;-73
2023/05/11 00:14:32;;;;;;;0.57;0.30;;;;;;;15.18;69.10;100198.38;5084276;28;20394;-72
2023/05/11 00:16:57;;;;;;;1.03;0.47;;;;;;;15.23;68.87;100198.31;5083176;28;20466;-72
2023/05/11 00:19:22;;;;;;;1.87;0.30;;;;;;;15.29;68.84;100202.66;5062319;28;20908;-72
2023/05/11 00:21:47;;;;;;;0.37;0.33;;;;;;;15.29;68.59;100197.19;5080166;28;20392;-72
2023/05/11 00:24:13;;;;;;;0.50;0.40;;;;;;;15.28;68.69;100195.59;5083250;28;20450;-72
2023/05/11 00:26:38;;;;;;;0.40;0.40;;;;;;;15.27;68.79;100202.13;5060493;28;20415;-72
2023/05/11 00:29:03;;;;;;;1.90;0.50;;;;;;;15.28;68.56;100195.59;5071812;28;20445;-72
2023/05/11 00:31:28;;;;;;;0.37;0.30;;;;;;;15.29;68.49;100195.28;5071894;28;20388;-72
2023/05/11 00:33:54;;;;;;;0.70;0.70;;;;;;;15.33;68.44;100198.25;5071800;28;20878;-72
2023/05/11 00:36:20;;;;;;;1.40;0.47;;;;;;;15.29;68.62;100198.00;5071175;28;20965;-73
2023/05/11 00:38:45;;;;;;;0.40;0.40;;;;;;;15.17;69.02;100194.81;5053889;28;20404;-72
2023/05/11 00:41:10;;;;;;;2.73;0.30;;;;;;;15.24;68.78;100198.06;5072068;28;20390;-72
2023/05/11 00:43:36;;;;;;;0.40;0.40;;;;;;;15.28;68.49;100193.66;5071730;28;20947;-72
2023/05/11 00:46:02;;;;;;;3.00;0.47;;;;;;;15.29;68.44;100194.47;5071101;28;20498;-72
2023/05/11 00:48:27;;;;;;;3.40;0.40;;;;;;;15.21;68.56;100193.16;5071673;28;20380;-73
2023/05/11 00:50:53;;;;;;;1.77;0.30;;;;;;;15.20;68.49;100193.44;5071866;28;20739;-73
2023/05/11 00:53:18;;;;;;;1.33;0.30;;;;;;;15.18;68.49;100188.25;5071888;28;20440;-72
2023/05/11 00:55:44;;;;;;;0.43;0.43;;;;;;;15.12;68.39;100192.09;5071167;28;20376;-72
2023/05/11 00:58:09;;;;;;;1.30;0.32;;;;;;;15.10;68.76;100185.28;5053953;28;20430;-72
2023/05/11 01:00:35;;;;;;;0.47;0.40;;;;;;;15.08;68.74;100188.31;5071861;28;20387;-72
2023/05/11 01:03:01;;;;;;;3.53;0.38;;;;;;;15.07;68.69;100190.22;5071487;28;20972;-73
2023/05/11 01:05:34;;;;;;;1.90;0.28;;;;;;;15.06;68.91;100185.84;5071823;28;20541;-73
2023/05/11 01:08:14;;;;;;;1.30;0.27;;;;;;;15.03;69.13;100186.41;5068057;28;20438;-73
2023/05/11 01:10:47;;;;;;;0.20;0.20;;;;;;;15.08;68.54;100185.59;5071628;28;20391;-72
2023/05/11 01:13:30;;;;;;;0.30;0.30;;;;;;;15.09;68.55;100179.00;5086985;28;20414;-72
2023/05/11 01:15:55;;;;;;;1.13;0.28;;;;;;;15.01;68.92;100185.06;5056581;28;20388;-73
2023/05/11 01:18:39;;;;;;;0.40;0.30;;;;;;;15.00;68.86;100188.91;5053901;28;20371;-72
2023/05/11 01:21:07;;;;;;;0.73;0.43;;;;;;;14.96;68.77;100183.19;5086888;28;20533;-72
2023/05/11 01:23:51;;;;;;;0.98;0.40;;;;;;;15.00;69.02;100191.63;5086848;28;20407;-72
2023/05/11 01:26:31;;;;;;;1.33;0.50;;;;;;;15.00;68.66;100180.72;5070558;28;20407;-73
2023/05/11 01:29:41;;;;;;;0.90;0.40;;;;;;;14.97;69.04;100182.09;5070967;28;20384;-72
2023/05/11 01:32:17;;;;;;;1.17;0.30;;;;;;;14.89;69.31;100177.22;5080070;28;20380;-72
2023/05/11 01:34:44;;;;;;;0.30;0.30;;;;;;;14.89;68.95;100177.22;5075291;28;20471;-72
2023/05/11 01:37:17;;;;;;;0.80;0.45;;;;;;;14.98;68.84;100182.91;5074557;28;20399;-72
2023/05/11 01:39:56;;;;;;;0.30;0.30;;;;;;;14.93;68.91;100178.28;5052667;28;20435;-72
2023/05/11 01:42:35;;;;;;;0.60;0.40;;;;;;;14.94;69.02;100184.56;5067538;28;20394;-72
2023/05/11 01:45:02;;;;;;;1.35;0.40;;;;;;;14.89;69.04;100177.22;5075184;28;20734;-73
2023/05/11 01:47:30;;;;;;;0.60;0.30;;;;;;;14.80;69.58;100183.53;5074352;28;20408;-72
2023/05/11 01:49:57;;;;;;;0.80;0.30;;;;;;;14.76;69.75;100183.25;5074869;28;20391;-72
2023/05/11 01:52:25;;;;;;;0.60;0.30;;;;;;;14.80;69.61;100180.78;5074890;28;20577;-72
2023/05/11 01:54:53;;;;;;;0.30;0.30;;;;;;;14.78;69.50;100185.72;5074616;28;20457;-72
2023/05/11 01:57:20;;;;;;;0.50;0.30;;;;;;;14.83;69.49;100189.25;5089792;28;20412;-72
2023/05/11 01:59:46;;;;;;;2.20;0.40;;;;;;;14.89;69.21;100187.28;5074819;28;20471;-73
2023/05/11 02:02:12;;;;;;;0.40;0.40;;;;;;;14.92;69.17;100187.56;5073062;28;20403;-72
2023/05/11 02:04:39;;;;;;;0.25;0.25;;;;;;;14.85;69.55;100187.03;5074757;28;20483;-72
2023/05/11 02:07:07;;;;;;;1.65;0.40;;;;;;;14.87;69.46;100189.50;5074051;28;20407;-72
2023/05/11 02:09:33;;;;;;;0.40;0.20;;;;;;;14.84;69.25;100182.69;5074273;28;20442;-73
2023/05/11 02:12:00;;;;;;;2.10;0.85;;;;;;;14.77;69.79;100184.09;5072572;28;20399;-73
2023/05/11 02:14:28;;;;;;;0.50;0.35;;;;;;;14.78;69.54;100183.81;5074225;28;20720;-72
2023/05/11 02:16:55;;;;;;;1.25;0.50;;;;;;;14.56;70.46;100183.34;5068457;28;20413;-72
2023/05/11 02:19:20;;;;;;;0.65;0.40;;;;;;;14.58;70.36;100188.53;5067239;28;20479;-72
2023/05/11 02:21:47;;;;;;;0.70;0.40;;;;;;;14.69;70.08;100188.19;5074367;28;20467;-73
2023/05/11 02:24:13;;;;;;;2.83;0.70;;;;;;;14.69;70.04;100188.19;5073828;28;20859;-73
2023/05/11 02:26:38;;;;;;;1.70;0.40;;;;;;;14.67;69.96;100186.84;5072968;28;20404;-73
2023/05/11 02:29:04;;;;;;;2.47;0.40;;;;;;;14.70;70.06;100191.75;5074139;28;20387;-72
2023/05/11 02:31:35;;;;;;;1.80;0.80;;;;;;;14.72;69.78;100186.84;5074129;28;20396;-72
2023/05/11 02:34:08;;;;;;;2.58;0.40;;;;;;;14.68;69.83;100192.03;5056039;28;20431;-72
2023/05/11 02:36:37;;;;;;;5.40;0.60;;;;;;;14.66;70.18;100196.13;5073390;28;20406;-73
2023/05/11 02:39:07;;;;;;;0.57;0.50;;;;;;;14.60;70.43;100189.88;5055713;28;20407;-72
2023/05/11 02:41:40;;;;;;;0.40;0.40;;;;;;;14.59;70.23;100192.91;5073640;28;20773;-72
2023/05/11 02:44:10;;;;;;;0.80;0.55;;;;;;;14.51;70.35;100189.63;5073834;28;20422;-72
2023/05/11 02:46:39;;;;;;;2.00;0.80;;;;;;;14.55;70.64;100189.91;5072719;28;20396;-72
2023/05/11 02:49:08;;;;;;;0.68;0.63;;;;;;;14.48;70.58;100187.47;5056232;28;20380;-73
2023/05/11 02:51:40;;;;;;;1.30;0.80;;;;;;;14.42;71.00;100193.22;5074028;28;20735;-73
2023/05/11 02:54:09;;;;;;;0.93;0.63;;;;;;;14.37;71.41;100187.75;5057814;28;20886;-72
2023/05/11 02:56:35;;;;;;;1.33;0.57;;;;;;;14.35;71.28;100190.78;5073402;28;20467;-73
2023/05/11 02:59:01;;;;;;;0.70;0.70;;;;;;;14.37;71.26;100185.84;5073351;28;20475;-72
2023/05/11 03:01:27;;;;;;;1.15;0.52;;;;;;;14.40;71.19;100190.75;5073617;28;20871;-72
2023/05/11 03:03:53;;;;;;;0.50;0.50;;;;;;;14.37;71.32;100191.31;5087741;28;20510;-73
2023/05/11 03:06:18;;;;;;;1.10;0.45;;;;;;;14.42;70.86;100180.38;5073694;28;20539;-73
2023/05/11 03:08:44;;;;;;;0.90;0.55;;;;;;;14.46;71.08;100177.91;5064556;28;20416;-72
2023/05/11 03:11:13;;;;;;;1.90;0.57;;;;;;;14.47;70.92;100183.09;5072973;28;20757;-72
2023/05/11 03:13:39;;;;;;;0.50;0.50;;;;;;;14.45;70.99;100182.56;5073271;28;20383;-72
2023/05/11 03:16:06;;;;;;;1.07;0.43;;;;;;;14.42;70.92;100185.03;5072616;28;20461;-72
2023/05/11 03:18:32;;;;;;;1.67;0.67;;;;;;;14.41;71.14;100189.66;5073318;28;20537;-72
2023/05/11 03:21:00;;;;;;;1.25;0.60;;;;;;;14.41;71.07;100189.66;5073045;28;20532;-72
2023/05/11 03:23:26;;;;;;;1.02;0.68;;;;;;;14.42;71.28;100182.31;5073097;28;20395;-72
2023/05/11 03:25:51;;;;;;;0.90;0.60;;;;;;;14.40;71.38;100181.75;5072090;28;20415;-73
2023/05/11 03:28:19;;;;;;;0.70;0.70;;;;;;;14.40;70.92;100185.28;5062773;28;20417;-72
2023/05/11 03:30:45;;;;;;;1.42;0.50;;;;;;;14.47;70.80;100183.09;5053407;28;20466;-73
2023/05/11 03:33:10;;;;;;;1.30;0.82;;;;;;;14.47;70.60;100194.00;5072718;28;20412;-72
2023/05/11 03:35:36;;;;;;;1.00;0.83;;;;;;;14.41;70.97;100175.22;5072096;28;20408;-72
2023/05/11 03:38:04;;;;;;;1.33;0.73;;;;;;;14.42;70.85;100185.81;5071673;28;20464;-73
2023/05/11 03:40:32;;;;;;;0.77;0.77;;;;;;;14.41;70.87;100186.13;5072892;28;20387;-72
2023/05/11 03:43:00;;;;;;;0.68;0.68;;;;;;;14.44;71.05;100186.38;5072774;28;20408;-72
2023/05/11 03:45:28;;;;;;;0.80;0.80;;;;;;;14.43;71.13;100178.47;5072011;28;20510;-73
2023/05/11 03:47:55;;;;;;;1.25;1.05;;;;;;;14.54;70.36;100185.53;5069593;28;20399;-73
2023/05/11 03:50:20;;;;;;;4.90;1.00;;;;;;;14.56;70.43;100177.88;5069105;28;20411;-72
2023/05/11 03:52:46;;;;;;;0.93;0.80;;;;;;;14.58;70.45;100181.16;5069559;28;20407;-72
2023/05/11 03:55:12;;;;;;;0.77;0.77;;;;;;;14.59;70.44;100182.78;5070436;28;20512;-72
2023/05/11 03:57:37;;;;;;;1.10;0.90;;;;;;;14.58;70.35;100186.63;5050488;28;20439;-72
2023/05/11 04:00:03;;;;;;;1.90;1.10;;;;;;;14.55;70.08;100177.06;5070461;28;20483;-73
2023/05/11 04:02:29;;;;;;;0.95;0.95;;;;;;;14.48;70.82;100182.00;5066012;28;20447;-73
2023/05/11 04:04:54;;;;;;;2.90;2.70;;;;;;;14.47;70.84;100176.81;5069243;28;20548;-72
2023/05/11 04:07:19;;;;;;;1.75;1.67;;;;;;;14.30;71.30;100179.84;5068639;28;20898;-72
2023/05/11 04:09:45;;;;;;;2.13;1.60;;;;;;;14.22;71.64;100179.59;5051741;28;20426;-72
2023/05/11 04:12:10;;;;;;;1.60;1.50;;;;;;;14.23;71.67;100181.19;5050851;28;20400;-72
2023/05/11 04:14:35;;;;;;;2.37;1.37;;;;;;;14.22;71.75;100187.75;5068189;28;20502;-72
2023/05/11 04:17:00;;;;;;;1.43;1.43;;;;;;;14.30;71.51;100182.56;5070853;28;20763;-73
2023/05/11 04:19:26;;;;;;;1.13;1.10;;;;;;;14.37;71.28;100180.41;5086027;28;20400;-72
2023/05/11 04:21:51;;;;;;;3.00;1.60;;;;;;;14.43;71.08;100176.56;5068880;28;20503;-73
2023/05/11 04:24:16;;;;;;;1.20;1.20;;;;;;;14.44;70.95;100185.56;5068848;28;20435;-73
2023/05/11 04:26:42;;;;;;;1.47;1.37;;;;;;;14.39;70.92;100180.91;5069911;28;20408;-73
2023/05/11 04:29:07;;;;;;;1.73;1.33;;;;;;;14.23;71.56;100183.94;5065521;28;20403;-73
2023/05/11 04:31:32;;;;;;;1.83;1.50;;;;;;;14.30;71.74;100190.72;5066813;28;20498;-72
2023/05/11 04:33:58;;;;;;;1.30;1.10;;;;;;;14.27;71.66;100191.28;5070039;28;20419;-73
2023/05/11 04:36:23;;;;;;;1.30;1.20;;;;;;;14.33;71.44;100183.91;5070973;28;20434;-73
2023/05/11 04:38:49;;;;;;;1.63;1.52;;;;;;;14.45;70.92;100193.47;5071698;28;20380;-73
2023/05/11 04:41:14;;;;;;;1.20;1.10;;;;;;;14.43;70.74;100194.81;5071953;28;20394;-73
2023/05/11 04:43:40;;;;;;;1.20;1.20;;;;;;;14.20;71.33;100189.94;5067681;28;20419;-73
2023/05/11 04:46:05;;;;;;;2.23;1.37;;;;;;;14.20;72.12;100192.66;5071257;28;20423;-73
2023/05/11 04:48:30;;;;;;;1.40;1.30;;;;;;;14.25;71.63;100187.22;5087124;28;20399;-73
2023/05/11 04:50:56;;;;;;;1.40;1.20;;;;;;;14.18;72.26;100194.84;5069518;28;20460;-73
2023/05/11 04:53:22;;;;;;;2.53;1.48;;;;;;;14.24;71.85;100194.56;5071414;28;20403;-73
2023/05/11 04:55:47;;;;;;;2.28;2.17;;;;;;;14.28;71.84;100192.09;5069052;28;20388;-73
2023/05/11 04:58:13;;;;;;;4.53;3.00;;;;;;;14.30;71.42;100190.72;5064441;28;20746;-73
2023/05/11 05:00:39;;;;;;;1.87;1.70;;;;;;;14.33;71.48;100194.81;5070107;28;20913;-73
2023/05/11 05:03:04;;;;;;;2.13;1.30;;;;;;;14.37;71.60;100193.19;5071029;28;20462;-73
2023/05/11 05:05:29;;;;;;;1.93;1.40;;;;;;;14.42;71.14;100193.22;5064175;28;20392;-73
2023/05/11 05:07:55;;;;;;;1.63;1.53;;;;;;;14.44;71.00;100194.56;5057767;28;20396;-73
2023/05/11 05:10:20;;;;;;;0.93;0.90;;;;;;;14.50;70.83;100193.44;5074926;28;20404;-73
2023/05/11 05:12:46;;;;;;;1.50;1.40;;;;;;;14.60;70.48;100198.06;5074432;28;20459;-73
2023/05/11 05:15:11;;;;;;;1.55;1.42;;;;;;;14.55;70.26;100193.41;5076061;28;20403;-73
2023/05/11 05:17:37;;;;;;;1.90;1.40;;;;;;;14.61;69.88;100207.06;5075686;28;20470;-74
2023/05/11 05:20:03;;;;;;;1.83;1.42;;;;;;;14.62;69.87;100204.03;5067456;28;20876;-73
2023/05/11 05:22:29;;;;;;;2.63;1.58;;;;;;;14.52;70.21;100199.44;5065709;28;20495;-73
2023/05/11 05:24:54;;;;;;;1.52;1.40;;;;;;;14.48;70.76;100211.19;5075328;28;20869;-72
2023/05/11 05:27:19;;;;;;;2.10;1.40;;;;;;;14.45;70.51;100211.75;5075285;28;20399;-72
2023/05/11 05:29:45;;;;;;;1.40;1.30;;;;;;;14.39;70.84;100215.56;5075279;28;20472;-73
2023/05/11 05:32:10;;;;;;;3.23;2.30;;;;;;;14.36;70.80;100213.38;5074663;28;20413;-75
2023/05/11 05:34:35;;;;;;;2.50;1.80;;;;;;;14.39;71.10;100215.56;5072677;28;20460;-73
2023/05/11 05:37:00;;;;;;;2.50;1.30;;;;;;;14.22;71.21;100213.13;5074179;28;20394;-73
2023/05/11 05:39:26;;;;;;;2.10;1.30;;;;;;;14.09;71.90;100218.31;5074769;28;20394;-74
2023/05/11 05:41:51;;;;;;;2.93;1.30;;;;;;;14.13;72.10;100217.47;5090257;28;20758;-74
2023/05/11 05:44:16;;;;;;;1.60;1.23;;;;;;;14.12;72.34;100213.13;5073633;28;20500;-74
2023/05/11 05:46:42;;;;;;;6.03;1.47;;;;;;;14.16;72.04;100210.66;5074743;28;20395;-73
2023/05/11 05:49:07;;;;;;;1.48;1.48;;;;;;;14.13;71.98;100219.41;5077002;28;20403;-74
2023/05/11 05:51:32;;;;;;;3.40;1.67;;;;;;;14.15;71.86;100218.03;5074658;28;20874;-74
2023/05/11 05:53:57;;;;;;;1.77;1.67;;;;;;;14.24;71.55;100218.28;5065629;28;20391;-74
2023/05/11 05:56:23;;;;;;;1.20;1.20;;;;;;;14.28;71.61;100219.38;5075389;28;20536;-75
2023/05/11 05:58:48;;;;;;;2.93;1.57;;;;;;;14.23;71.89;100220.19;5071398;28;20404;-74
2023/05/11 06:01:13;;;;;;;1.70;1.60;;;;;;;14.07;72.71;100212.28;5082504;28;20463;-74
2023/05/11 06:03:39;;;;;;;1.37;1.37;;;;;;;14.09;72.38;100212.84;5084865;28;20423;-74
2023/05/11 06:06:05;;;;;;;2.80;1.40;;;;;;;14.12;72.68;100215.84;5072110;28;20898;-73
2023/05/11 06:08:31;;;;;;;3.10;1.40;;;;;;;14.25;71.99;100223.47;5085142;28;20642;-74
2023/05/11 06:10:56;;;;;;;1.80;1.70;;;;;;;14.31;71.89;100216.91;5089313;28;20487;-74
2023/05/11 06:13:21;;;;;;;1.60;1.50;;;;;;;14.31;72.09;100222.38;5056307;28;20392;-73
2023/05/11 06:15:47;;;;;;;3.17;1.63;;;;;;;14.45;71.28;100212.56;5073970;28;20419;-75
2023/05/11 06:18:12;;;;;;;1.92;1.67;;;;;;;14.57;70.49;100216.88;5056292;28;20401;-75
2023/05/11 06:20:37;;;;;;;1.97;1.83;;;;;;;14.61;70.04;100218.78;5075341;28;20387;-73
2023/05/11 06:23:03;;;;;;;2.20;1.90;;;;;;;14.59;70.65;100217.44;5074060;28;20755;-73
2023/05/11 06:25:28;;;;;;;1.70;1.60;;;;;;;14.68;70.23;100222.03;5074260;28;20391;-73
2023/05/11 06:27:53;;;;;;;1.60;1.50;;;;;;;14.79;69.70;100222.81;5074051;28;20380;-74
2023/05/11 06:30:18;;;;;;;3.53;1.60;;;;;;;14.77;69.99;100220.38;5074385;28;20867;-74
2023/05/11 06:32:44;;;;;;;3.63;1.60;;;;;;;14.78;70.00;100216.56;5073591;28;20415;-74
2023/05/11 06:35:09;;;;;;;4.07;1.73;;;;;;;14.83;70.37;100218.44;5074013;28;20402;-74
2023/05/11 06:37:34;;;;;;;2.17;1.90;;;;;;;14.87;70.28;100208.59;5074037;28;20392;-74
2023/05/11 06:40:00;;;;;;;2.47;1.27;;;;;;;14.79;70.70;100217.34;5073877;28;20953;-74
2023/05/11 06:42:25;;;;;;;2.03;1.63;;;;;;;14.85;70.35;100221.72;5073197;28;20476;-74
2023/05/11 06:44:51;;;;;;;2.10;1.80;;;;;;;14.90;70.27;100216.22;5073813;28;20452;-74
2023/05/11 06:47:16;;;;;;;4.43;1.87;;;;;;;14.98;69.49;100218.38;5055951;28;20398;-74
2023/05/11 06:49:41;;;;;;;3.23;2.00;;;;;;;14.99;69.61;100220.00;5073687;28;20738;-74
2023/05/11 06:52:07;;;;;;;2.20;2.10;;;;;;;15.01;69.36;100217.81;5071509;28;20439;-74
2023/05/11 06:54:33;;;;;;;2.90;2.17;;;;;;;15.04;69.57;100214.53;5073095;28;20415;-74
2023/05/11 06:56:58;;;;;;;6.20;2.17;;;;;;;15.05;69.68;100219.69;5073359;28;20398;-74
2023/05/11 06:59:23;;;;;;;1.80;1.70;;;;;;;15.18;69.27;100218.25;5073415;28;20388;-75
2023/05/11 07:01:49;;;;;;;2.20;1.77;;;;;;;15.11;69.21;100219.69;5073077;28;20893;-74
2023/05/11 07:04:14;;;;;;;2.10;2.00;;;;;;;15.00;69.92;100221.63;5073650;28;20451;-74
2023/05/11 07:06:39;;;;;;;3.03;1.97;;;;;;;14.89;70.66;100220.03;5073454;28;20399;-74
2023/05/11 07:09:05;;;;;;;2.43;2.27;;;;;;;14.88;70.75;100218.44;5072545;28;20872;-74
2023/05/11 07:11:31;;;;;;;3.03;2.20;;;;;;;15.01;70.35;100221.38;5072016;28;20415;-73
2023/05/11 07:13:56;;;;;;;4.57;2.35;;;;;;;15.17;69.66;100227.56;5055333;28;20933;-74
2023/05/11 07:16:22;;;;;;;2.40;2.20;;;;;;;15.08;70.10;100226.53;5070479;28;20767;-74
2023/05/11 07:18:47;;;;;;;1.80;1.70;;;;;;;15.18;70.08;100229.19;5073169;28;20390;-73
2023/05/11 07:21:12;;;;;;;3.00;2.00;;;;;;;15.24;70.15;100224.53;5073172;28;20375;-74
2023/05/11 07:23:38;;;;;;;8.53;6.03;;;;;;;15.28;69.82;100236.53;5055495;28;20410;-73
2023/05/11 07:26:08;;;;;;;5.53;3.70;;;;;;;15.24;69.65;100230.81;5072787;28;20388;-74
2023/05/11 07:28:36;;;;;;;2.38;2.20;;;;;;;15.37;68.25;100235.66;5072688;28;20400;-74
